Time;durP1;ratioP1;P1;durP2;ratioP2;P2;SDS_P1;SDS_P2;PMS_P1;PMS_P2;Temp;Humidity;BMP_temperature;BMP_pressure;BME280_temperature;BME280_humidity;BME280_pressure;Samples;Min_cycle;Max_cycle;Signal;HPM_P1;HPM_P2
2023/12/02 00:01:22;;;;;;;26.97;21.07;;;;;;;;;;5116656;28;20026;-55
2023/12/02 00:03:48;;;;;;;27.70;21.73;;;;;;;;;;5116119;28;20412;-58
2023/12/02 00:06:14;;;;;;;26.57;20.97;;;;;;;;;;5116327;28;20031;-58
2023/12/02 00:08:40;;;;;;;28.40;21.47;;;;;;;;;;5116577;28;20027;-57
2023/12/02 00:11:06;;;;;;;29.70;21.63;;;;;;;;;;5115998;28;20084;-58
2023/12/02 00:13:32;;;;;;;25.63;18.70;;;;;;;;;;5115969;28;20024;-58
2023/12/02 00:15:58;;;;;;;28.80;20.03;;;;;;;;;;5116309;28;20115;-57
2023/12/02 00:18:24;;;;;;;25.97;21.37;;;;;;;;;;5116436;28;20122;-58
2023/12/02 00:20:50;;;;;;;26.93;21.90;;;;;;;;;;5115721;28;20051;-58
2023/12/02 00:23:16;;;;;;;27.33;21.40;;;;;;;;;;5115837;28;20027;-56
2023/12/02 00:25:42;;;;;;;26.80;22.47;;;;;;;;;;5115684;28;20377;-56
2023/12/02 00:28:08;;;;;;;29.80;20.87;;;;;;;;;;5116120;28;20038;-52
2023/12/02 00:30:33;;;;;;;29.63;22.23;;;;;;;;;;5115724;28;20095;-54
2023/12/02 00:32:59;;;;;;;24.37;19.77;;;;;;;;;;5115087;28;20028;-55
2023/12/02 00:35:25;;;;;;;28.50;19.93;;;;;;;;;;5115447;28;20023;-58
2023/12/02 00:37:51;;;;;;;28.80;22.10;;;;;;;;;;5115514;28;20097;-56
2023/12/02 00:40:17;;;;;;;27.53;21.03;;;;;;;;;;5115378;28;20032;-56
2023/12/02 00:42:43;;;;;;;29.53;22.10;;;;;;;;;;5115219;28;20031;-56
2023/12/02 00:45:09;;;;;;;31.93;20.90;;;;;;;;;;5115139;28;20027;-57
2023/12/02 00:47:35;;;;;;;30.53;22.10;;;;;;;;;;5115804;28;20031;-54
2023/12/02 00:50:01;;;;;;;31.80;22.97;;;;;;;;;;5115074;28;20438;-56
2023/12/02 00:52:27;;;;;;;27.63;22.07;;;;;;;;;;5115154;28;20030;-57
2023/12/02 00:54:53;;;;;;;28.80;19.90;;;;;;;;;;5115068;28;20353;-55
2023/12/02 00:57:19;;;;;;;24.30;20.27;;;;;;;;;;5115565;28;20020;-57
2023/12/02 00:59:45;;;;;;;33.70;22.90;;;;;;;;;;5115682;28;20361;-57
2023/12/02 01:02:11;;;;;;;26.77;18.83;;;;;;;;;;5114973;28;20024;-57
2023/12/02 01:04:37;;;;;;;24.13;20.40;;;;;;;;;;5114980;28;20038;-58
2023/12/02 01:07:03;;;;;;;28.60;21.07;;;;;;;;;;5115178;28;20028;-58
2023/12/02 01:09:29;;;;;;;32.23;21.80;;;;;;;;;;5114799;28;20076;-57
2023/12/02 01:11:55;;;;;;;22.90;18.03;;;;;;;;;;5114969;28;20051;-57
2023/12/02 01:14:20;;;;;;;34.47;23.43;;;;;;;;;;5114979;28;20051;-53
2023/12/02 01:16:47;;;;;;;29.07;22.03;;;;;;;;;;5114679;28;20059;-57
2023/12/02 01:19:13;;;;;;;29.10;22.50;;;;;;;;;;5114645;28;20036;-57
2023/12/02 01:21:39;;;;;;;30.70;22.10;;;;;;;;;;5114837;28;20030;-54
2023/12/02 01:24:05;;;;;;;31.30;24.10;;;;;;;;;;5114599;28;20028;-54
2023/12/02 01:26:31;;;;;;;38.50;25.90;;;;;;;;;;5114278;28;20456;-56
2023/12/02 01:28:57;;;;;;;33.90;23.57;;;;;;;;;;5115117;28;20059;-58
2023/12/02 01:31:23;;;;;;;31.57;24.67;;;;;;;;;;5114949;28;20110;-57
2023/12/02 01:33:49;;;;;;;30.47;23.37;;;;;;;;;;5114303;28;20458;-58
2023/12/02 01:36:15;;;;;;;33.37;24.80;;;;;;;;;;5114236;28;20031;-56
2023/12/02 01:38:40;;;;;;;31.40;22.97;;;;;;;;;;5114102;28;20088;-57
2023/12/02 01:41:07;;;;;;;28.57;23.30;;;;;;;;;;5114389;28;20042;-57
2023/12/02 01:43:33;;;;;;;32.53;23.17;;;;;;;;;;5114585;28;20031;-57
2023/12/02 01:45:58;;;;;;;31.30;23.93;;;;;;;;;;5114553;28;20052;-57
2023/12/02 01:48:26;;;;;;;36.70;22.57;;;;;;;;;;5114822;28;20028;-55
2023/12/02 01:50:52;;;;;;;29.53;23.43;;;;;;;;;;5114350;28;20015;-56
2023/12/02 01:53:18;;;;;;;19.77;16.97;;;;;;;;;;5114250;28;20034;-54
2023/12/02 01:55:44;;;;;;;33.27;22.60;;;;;;;;;;5114465;28;20043;-55
2023/12/02 01:58:10;;;;;;;33.13;24.33;;;;;;;;;;5114646;28;20111;-55
2023/12/02 02:00:36;;;;;;;32.17;23.90;;;;;;;;;;5114632;28;20024;-53
2023/12/02 02:03:02;;;;;;;30.77;23.97;;;;;;;;;;5114593;28;20502;-52
2023/12/02 02:05:28;;;;;;;29.60;22.53;;;;;;;;;;5114089;28;20102;-52
2023/12/02 02:07:54;;;;;;;32.27;24.73;;;;;;;;;;5114079;28;20073;-51
2023/12/02 02:10:21;;;;;;;23.77;19.23;;;;;;;;;;5114591;28;20035;-55
2023/12/02 02:12:47;;;;;;;25.00;19.13;;;;;;;;;;5114501;28;20032;-54
2023/12/02 02:15:13;;;;;;;26.57;19.77;;;;;;;;;;5113894;28;20043;-55
2023/12/02 02:17:39;;;;;;;25.57;21.17;;;;;;;;;;5114509;28;20031;-54
2023/12/02 02:20:05;;;;;;;23.47;19.73;;;;;;;;;;5114476;28;20514;-53
2023/12/02 02:22:31;;;;;;;31.37;22.00;;;;;;;;;;5113654;28;20488;-53
2023/12/02 02:24:57;;;;;;;28.70;21.63;;;;;;;;;;5113804;28;20028;-53
2023/12/02 02:27:23;;;;;;;29.40;22.43;;;;;;;;;;5114181;28;20024;-55
2023/12/02 02:29:49;;;;;;;30.07;22.17;;;;;;;;;;5114347;28;20081;-57
2023/12/02 02:32:15;;;;;;;12.13;8.77;;;;;;;;;;5113860;28;20077;-56
2023/12/02 02:34:42;;;;;;;24.40;20.23;;;;;;;;;;5114575;28;20027;-56
2023/12/02 02:37:09;;;;;;;32.73;21.73;;;;;;;;;;5113763;28;20461;-56
2023/12/02 02:39:34;;;;;;;24.40;16.40;;;;;;;;;;5114332;28;20084;-56
2023/12/02 02:42:06;;;;;;;31.93;23.30;;;;;;;;;;5114023;28;20392;-55
2023/12/02 02:44:33;;;;;;;26.40;21.10;;;;;;;;;;5113725;28;20030;-55
2023/12/02 02:46:58;;;;;;;29.33;23.27;;;;;;;;;;5115669;28;20107;-54
2023/12/02 02:49:24;;;;;;;30.83;21.70;;;;;;;;;;5117441;28;20059;-56
2023/12/02 02:51:50;;;;;;;31.33;21.53;;;;;;;;;;5117514;28;20027;-55
2023/12/02 02:54:16;;;;;;;33.07;24.17;;;;;;;;;;5118024;28;20128;-55
2023/12/02 02:56:43;;;;;;;28.83;19.57;;;;;;;;;;5117642;28;20131;-53
2023/12/02 02:59:09;;;;;;;30.90;22.90;;;;;;;;;;5117427;28;20032;-53
2023/12/02 03:01:36;;;;;;;27.97;21.07;;;;;;;;;;5117303;28;20351;-56
2023/12/02 03:04:01;;;;;;;26.47;18.90;;;;;;;;;;5117587;28;20430;-56
2023/12/02 03:06:27;;;;;;;29.13;20.90;;;;;;;;;;5116816;28;20096;-56
2023/12/02 03:08:54;;;;;;;28.93;21.73;;;;;;;;;;5117128;28;20023;-56
2023/12/02 03:11:20;;;;;;;31.73;22.53;;;;;;;;;;5117654;28;20023;-55
2023/12/02 03:13:46;;;;;;;30.57;21.33;;;;;;;;;;5117382;28;20441;-55
2023/12/02 03:16:12;;;;;;;33.03;23.13;;;;;;;;;;5116943;28;20063;-55
2023/12/02 03:18:38;;;;;;;28.00;19.90;;;;;;;;;;5117805;28;20027;-55
2023/12/02 03:21:04;;;;;;;22.93;16.80;;;;;;;;;;5116980;28;20042;-55
2023/12/02 03:23:30;;;;;;;23.20;18.63;;;;;;;;;;5116915;28;20031;-56
2023/12/02 03:25:56;;;;;;;24.77;19.87;;;;;;;;;;5117100;28;20536;-56
2023/12/02 03:28:23;;;;;;;30.00;21.13;;;;;;;;;;5117642;28;20377;-54
2023/12/02 03:30:49;;;;;;;27.47;19.00;;;;;;;;;;5116752;28;20020;-56
2023/12/02 03:33:15;;;;;;;29.00;19.17;;;;;;;;;;5116702;28;20030;-55
2023/12/02 03:35:41;;;;;;;19.53;15.07;;;;;;;;;;5117201;28;20036;-56
2023/12/02 03:38:07;;;;;;;26.00;18.53;;;;;;;;;;5117292;28;20418;-55
2023/12/02 03:40:33;;;;;;;27.53;18.70;;;;;;;;;;5117173;28;20080;-54
2023/12/02 03:42:59;;;;;;;20.20;16.27;;;;;;;;;;5116571;28;20062;-53
2023/12/02 03:45:26;;;;;;;23.97;17.23;;;;;;;;;;5116416;28;20027;-56
2023/12/02 03:47:52;;;;;;;27.00;19.43;;;;;;;;;;5117303;28;20028;-54
2023/12/02 03:50:18;;;;;;;21.77;13.60;;;;;;;;;;5116274;28;20031;-54
2023/12/02 03:52:44;;;;;;;25.13;19.20;;;;;;;;;;5116389;28;20031;-55
2023/12/02 03:55:10;;;;;;;18.00;14.50;;;;;;;;;;5116213;28;20040;-55
2023/12/02 03:57:36;;;;;;;21.47;18.23;;;;;;;;;;5115474;28;20031;-56
2023/12/02 04:00:10;;;;;;;26.63;20.20;;;;;;;;;;5116264;28;20050;-54
2023/12/02 04:02:36;;;;;;;23.87;17.23;;;;;;;;;;5116790;28;20027;-54
2023/12/02 04:05:02;;;;;;;27.63;17.90;;;;;;;;;;5114846;28;20059;-55
2023/12/02 04:07:28;;;;;;;26.47;18.80;;;;;;;;;;5116118;28;20024;-51
2023/12/02 04:09:54;;;;;;;21.93;17.03;;;;;;;;;;5116091;28;20028;-56
2023/12/02 04:12:20;;;;;;;21.70;17.00;;;;;;;;;;5116014;28;20058;-56
2023/12/02 04:14:46;;;;;;;24.67;19.20;;;;;;;;;;5115912;28;20462;-55
2023/12/02 04:17:12;;;;;;;20.70;16.17;;;;;;;;;;5115915;28;20024;-55
2023/12/02 04:19:38;;;;;;;23.87;16.40;;;;;;;;;;5116341;28;20027;-55
2023/12/02 04:22:04;;;;;;;21.23;16.87;;;;;;;;;;5115710;28;20048;-56
2023/12/02 04:24:30;;;;;;;23.13;16.27;;;;;;;;;;5115771;28;20028;-56
2023/12/02 04:26:56;;;;;;;22.57;18.83;;;;;;;;;;5116264;28;20077;-54
2023/12/02 04:29:22;;;;;;;17.67;14.73;;;;;;;;;;5115682;28;20449;-54
2023/12/02 04:31:48;;;;;;;18.63;16.70;;;;;;;;;;5115555;28;20028;-54
2023/12/02 04:34:14;;;;;;;19.63;16.17;;;;;;;;;;5115304;28;20027;-56
2023/12/02 04:36:40;;;;;;;17.80;15.03;;;;;;;;;;5115421;28;20039;-52
2023/12/02 04:39:09;;;;;;;19.97;16.17;;;;;;;;;;5115808;28;20024;-56
2023/12/02 04:41:35;;;;;;;23.17;17.50;;;;;;;;;;5115399;28;20034;-56
2023/12/02 04:44:01;;;;;;;23.67;15.10;;;;;;;;;;5115711;28;20031;-55
2023/12/02 04:46:27;;;;;;;17.40;14.27;;;;;;;;;;5114889;28;20346;-55
2023/12/02 04:48:53;;;;;;;17.57;14.53;;;;;;;;;;5115338;28;20450;-56
2023/12/02 04:51:19;;;;;;;25.40;13.73;;;;;;;;;;5115136;28;20100;-56
2023/12/02 04:53:45;;;;;;;20.50;14.77;;;;;;;;;;5115428;28;20449;-54
2023/12/02 04:56:11;;;;;;;19.37;14.60;;;;;;;;;;5115572;28;20039;-53
2023/12/02 04:58:37;;;;;;;21.70;13.87;;;;;;;;;;5115629;28;20164;-56
2023/12/02 05:01:04;;;;;;;19.23;14.10;;;;;;;;;;5115138;28;20471;-56
2023/12/02 05:03:30;;;;;;;18.10;13.17;;;;;;;;;;5114974;28;20440;-54
2023/12/02 05:05:56;;;;;;;13.33;10.93;;;;;;;;;;5115445;28;20027;-54
2023/12/02 05:08:22;;;;;;;17.83;15.87;;;;;;;;;;5114727;28;20024;-56
2023/12/02 05:10:47;;;;;;;16.37;13.70;;;;;;;;;;5114733;28;20106;-56
2023/12/02 05:13:13;;;;;;;17.20;14.70;;;;;;;;;;5114688;28;20053;-55
2023/12/02 05:15:39;;;;;;;10.87;9.23;;;;;;;;;;5115089;28;20035;-55
2023/12/02 05:18:05;;;;;;;14.83;13.33;;;;;;;;;;5114884;28;20023;-54
2023/12/02 05:20:31;;;;;;;14.33;10.57;;;;;;;;;;5114620;28;20082;-55
2023/12/02 05:22:57;;;;;;;17.37;12.77;;;;;;;;;;5114270;28;20069;-54
2023/12/02 05:25:23;;;;;;;14.03;11.97;;;;;;;;;;5113973;28;20031;-56
2023/12/02 05:27:49;;;;;;;14.07;12.60;;;;;;;;;;5114710;28;20449;-54
2023/12/02 05:30:16;;;;;;;15.60;13.27;;;;;;;;;;5114755;28;20057;-53
2023/12/02 05:32:42;;;;;;;16.60;13.90;;;;;;;;;;5115181;28;20107;-52
2023/12/02 05:35:11;;;;;;;14.80;12.43;;;;;;;;;;5114747;28;20472;-54
2023/12/02 05:37:37;;;;;;;17.67;13.17;;;;;;;;;;5115135;28;20023;-50
2023/12/02 05:40:04;;;;;;;16.33;13.20;;;;;;;;;;5114867;28;20020;-51
2023/12/02 05:42:30;;;;;;;17.17;14.67;;;;;;;;;;5115159;28;20088;-53
2023/12/02 05:44:56;;;;;;;17.63;15.63;;;;;;;;;;5114374;28;20028;-53
2023/12/02 05:47:22;;;;;;;18.83;13.83;;;;;;;;;;5114625;28;20081;-56
2023/12/02 05:49:48;;;;;;;17.93;12.83;;;;;;;;;;5114359;28;20069;-56
2023/12/02 05:52:14;;;;;;;16.50;13.10;;;;;;;;;;5114245;28;20037;-56
2023/12/02 05:54:40;;;;;;;14.77;11.27;;;;;;;;;;5113934;28;20034;-52
2023/12/02 05:57:06;;;;;;;20.93;15.37;;;;;;;;;;5114456;28;20070;-56
2023/12/02 05:59:31;;;;;;;17.23;15.33;;;;;;;;;;5114141;28;20398;-55
2023/12/02 06:01:57;;;;;;;14.53;11.23;;;;;;;;;;5114950;28;20509;-56
2023/12/02 06:04:24;;;;;;;21.20;14.27;;;;;;;;;;5114430;28;20103;-54
2023/12/02 06:06:50;;;;;;;18.53;14.40;;;;;;;;;;5114714;28;20036;-54
2023/12/02 06:09:15;;;;;;;17.13;13.57;;;;;;;;;;5114127;28;20039;-55
2023/12/02 06:11:41;;;;;;;15.80;13.27;;;;;;;;;;5114421;28;20464;-56
2023/12/02 06:14:07;;;;;;;14.33;11.17;;;;;;;;;;5114308;28;20023;-54
2023/12/02 06:16:33;;;;;;;17.03;11.63;;;;;;;;;;5113626;28;20028;-55
2023/12/02 06:18:59;;;;;;;16.03;13.33;;;;;;;;;;5114071;28;20027;-52
2023/12/02 06:21:25;;;;;;;17.27;13.17;;;;;;;;;;5116617;28;20024;-54
2023/12/02 06:23:51;;;;;;;18.80;12.63;;;;;;;;;;5117818;28;20028;-54
2023/12/02 06:26:17;;;;;;;16.77;9.97;;;;;;;;;;5118313;28;20027;-55
2023/12/02 06:28:43;;;;;;;11.07;9.70;;;;;;;;;;5118352;28;20404;-56
2023/12/02 06:31:12;;;;;;;15.10;13.13;;;;;;;;;;5118054;28;20102;-53
2023/12/02 06:33:38;;;;;;;12.97;9.73;;;;;;;;;;5118206;28;20123;-53
2023/12/02 06:36:04;;;;;;;13.43;11.67;;;;;;;;;;5118029;28;20505;-53
2023/12/02 06:38:30;;;;;;;13.90;11.63;;;;;;;;;;5118164;28;20408;-53
2023/12/02 06:40:56;;;;;;;14.67;12.57;;;;;;;;;;5118227;28;20077;-52
2023/12/02 06:43:22;;;;;;;13.47;11.57;;;;;;;;;;5118035;28;20034;-54
2023/12/02 06:45:48;;;;;;;16.23;12.80;;;;;;;;;;5117434;28;20042;-53
2023/12/02 06:48:14;;;;;;;16.53;12.57;;;;;;;;;;5117994;28;20035;-56
2023/12/02 06:50:40;;;;;;;11.67;8.20;;;;;;;;;;5117973;28;20028;-53
2023/12/02 06:53:06;;;;;;;17.67;13.83;;;;;;;;;;5117851;28;20076;-55
2023/12/02 06:55:32;;;;;;;16.67;14.40;;;;;;;;;;5117256;28;20418;-55
2023/12/02 06:57:59;;;;;;;17.87;13.23;;;;;;;;;;5117250;28;20106;-56
2023/12/02 07:00:25;;;;;;;13.33;11.87;;;;;;;;;;5117995;28;20388;-55
2023/12/02 07:02:51;;;;;;;16.63;13.73;;;;;;;;;;5117870;28;20475;-53
2023/12/02 07:05:17;;;;;;;19.23;13.50;;;;;;;;;;5117238;28;20077;-52
2023/12/02 07:07:43;;;;;;;18.47;14.23;;;;;;;;;;5117569;28;20076;-53
2023/12/02 07:10:09;;;;;;;17.10;13.70;;;;;;;;;;5117785;28;20027;-55
2023/12/02 07:12:36;;;;;;;17.23;13.90;;;;;;;;;;5117325;28;20042;-57
2023/12/02 07:15:02;;;;;;;16.27;13.60;;;;;;;;;;5117556;28;20055;-54
2023/12/02 07:17:28;;;;;;;18.60;15.23;;;;;;;;;;5117643;28;20020;-54
2023/12/02 07:19:53;;;;;;;21.60;15.73;;;;;;;;;;5117597;28;20469;-55
2023/12/02 07:22:19;;;;;;;20.10;14.73;;;;;;;;;;5117242;28;20034;-54
2023/12/02 07:24:45;;;;;;;19.20;15.47;;;;;;;;;;5117730;28;20069;-56
2023/12/02 07:27:11;;;;;;;25.90;19.27;;;;;;;;;;5117097;28;20089;-54
2023/12/02 07:29:38;;;;;;;21.10;16.27;;;;;;;;;;5116813;28;20085;-52
2023/12/02 07:32:05;;;;;;;23.27;16.93;;;;;;;;;;5116368;28;20019;-53
2023/12/02 07:34:31;;;;;;;16.53;12.40;;;;;;;;;;5116471;28;20036;-55
2023/12/02 07:36:57;;;;;;;19.73;15.20;;;;;;;;;;5117224;28;20045;-52
2023/12/02 07:39:23;;;;;;;20.47;14.30;;;;;;;;;;5116569;28;20028;-56
2023/12/02 07:41:49;;;;;;;18.67;14.70;;;;;;;;;;5116581;28;20030;-54
2023/12/02 07:44:16;;;;;;;18.00;14.80;;;;;;;;;;5117123;28;20437;-56
2023/12/02 07:46:42;;;;;;;18.73;15.80;;;;;;;;;;5116508;28;20130;-56
2023/12/02 07:49:07;;;;;;;16.40;12.97;;;;;;;;;;5116077;28;20063;-54
2023/12/02 07:51:33;;;;;;;17.63;14.00;;;;;;;;;;5116038;28;20069;-55
2023/12/02 07:53:59;;;;;;;20.13;13.60;;;;;;;;;;5116287;28;20034;-53
2023/12/02 07:56:25;;;;;;;20.03;14.73;;;;;;;;;;5116106;28;20117;-56
2023/12/02 07:58:51;;;;;;;16.07;13.17;;;;;;;;;;5116525;28;20034;-52
2023/12/02 08:01:17;;;;;;;11.80;9.40;;;;;;;;;;5116180;28;20028;-56
2023/12/02 08:03:43;;;;;;;19.63;13.90;;;;;;;;;;5116175;28;20024;-53
2023/12/02 08:06:10;;;;;;;19.23;13.37;;;;;;;;;;5116084;28;20028;-55
2023/12/02 08:08:36;;;;;;;19.80;13.17;;;;;;;;;;5116603;28;20370;-55
2023/12/02 08:11:02;;;;;;;17.30;13.43;;;;;;;;;;5115528;28;20027;-49
2023/12/02 08:13:28;;;;;;;16.50;12.40;;;;;;;;;;5116407;28;20024;-55
2023/12/02 08:15:54;;;;;;;19.97;13.73;;;;;;;;;;5115805;28;20081;-53
2023/12/02 08:18:21;;;;;;;19.70;14.40;;;;;;;;;;5115837;28;20019;-57
2023/12/02 08:20:47;;;;;;;16.20;13.47;;;;;;;;;;5115900;28;20066;-56
2023/12/02 08:23:13;;;;;;;14.17;12.70;;;;;;;;;;5115757;28;20020;-56
2023/12/02 08:25:39;;;;;;;20.10;14.53;;;;;;;;;;5116044;28;20031;-55
2023/12/02 08:28:05;;;;;;;21.20;15.50;;;;;;;;;;5116323;28;20030;-57
2023/12/02 08:30:30;;;;;;;21.73;15.60;;;;;;;;;;5116528;28;20032;-57
2023/12/02 08:32:56;;;;;;;30.37;17.43;;;;;;;;;;5115531;28;20069;-56
2023/12/02 08:35:22;;;;;;;12.67;10.67;;;;;;;;;;5115727;28;20457;-56
2023/12/02 08:37:48;;;;;;;16.10;13.03;;;;;;;;;;5115786;28;20138;-56
2023/12/02 08:40:14;;;;;;;20.97;15.00;;;;;;;;;;5115421;28;20101;-56
2023/12/02 08:42:40;;;;;;;14.23;12.13;;;;;;;;;;5115433;28;20066;-56
2023/12/02 08:45:06;;;;;;;13.50;10.37;;;;;;;;;;5115270;28;20035;-53
2023/12/02 08:47:32;;;;;;;17.23;12.93;;;;;;;;;;5115084;28;20023;-53
2023/12/02 08:49:58;;;;;;;17.20;10.70;;;;;;;;;;5115770;28;20034;-55
2023/12/02 08:52:24;;;;;;;14.47;12.03;;;;;;;;;;5115987;28;20031;-57
2023/12/02 08:54:50;;;;;;;19.73;15.37;;;;;;;;;;5115456;28;20019;-55
2023/12/02 08:57:16;;;;;;;18.03;14.70;;;;;;;;;;5115390;28;20501;-56
2023/12/02 08:59:42;;;;;;;26.43;18.50;;;;;;;;;;5115048;28;20084;-56
2023/12/02 09:02:08;;;;;;;19.00;16.93;;;;;;;;;;5115316;28;20035;-57
2023/12/02 09:04:35;;;;;;;16.80;12.27;;;;;;;;;;5115036;28;20034;-56
2023/12/02 09:07:01;;;;;;;21.80;15.67;;;;;;;;;;5115743;28;20024;-55
2023/12/02 09:09:27;;;;;;;19.97;15.87;;;;;;;;;;5114870;28;20377;-54
2023/12/02 09:11:53;;;;;;;21.40;15.07;;;;;;;;;;5114914;28;20449;-55
2023/12/02 09:14:19;;;;;;;20.60;17.60;;;;;;;;;;5115366;28;20028;-51
2023/12/02 09:16:48;;;;;;;23.97;17.73;;;;;;;;;;5114435;28;20028;-51
2023/12/02 09:19:29;;;;;;;22.53;17.57;;;;;;;;;;5114723;28;20445;-52
2023/12/02 09:21:55;;;;;;;19.80;15.40;;;;;;;;;;5114909;28;20027;-51
2023/12/02 09:24:32;;;;;;;19.60;15.23;;;;;;;;;;5114594;28;20020;-54
2023/12/02 09:26:58;;;;;;;24.43;17.77;;;;;;;;;;5115276;28;20039;-55
2023/12/02 09:29:27;;;;;;;19.37;14.07;;;;;;;;;;5114134;28;20096;-54
2023/12/02 09:31:54;;;;;;;22.50;15.10;;;;;;;;;;5114484;28;20027;-54
2023/12/02 09:34:39;;;;;;;20.33;15.40;;;;;;;;;;5114670;28;20028;-56
2023/12/02 09:37:05;;;;;;;21.37;13.73;;;;;;;;;;5114840;28;20476;-58
2023/12/02 09:39:53;;;;;;;17.70;13.93;;;;;;;;;;5114649;28;20145;-55
2023/12/02 09:42:19;;;;;;;23.13;14.77;;;;;;;;;;5114623;28;20126;-52
2023/12/02 09:44:47;;;;;;;19.07;14.13;;;;;;;;;;5115136;28;20035;-55
2023/12/02 09:47:20;;;;;;;17.30;13.90;;;;;;;;;;5115146;28;20031;-54
2023/12/02 09:49:59;;;;;;;19.53;14.63;;;;;;;;;;5114569;28;20024;-55
2023/12/02 09:52:43;;;;;;;18.97;15.57;;;;;;;;;;5114242;28;20030;-54
2023/12/02 09:55:19;;;;;;;15.53;13.43;;;;;;;;;;5113638;28;20047;-55
2023/12/02 09:58:04;;;;;;;16.00;12.10;;;;;;;;;;5114303;28;20534;-51
2023/12/02 10:00:35;;;;;;;18.47;15.30;;;;;;;;;;5114167;28;20023;-53
2023/12/02 10:03:13;;;;;;;13.93;12.40;;;;;;;;;;5114206;28;20458;-52
2023/12/02 10:05:44;;;;;;;21.00;15.27;;;;;;;;;;5114540;28;20065;-55
2023/12/02 10:08:13;;;;;;;13.85;12.45;;;;;;;;;;5114373;28;20031;-56
2023/12/02 10:10:42;;;;;;;16.67;13.80;;;;;;;;;;5114427;28;20020;-53
2023/12/02 10:13:16;;;;;;;18.50;15.57;;;;;;;;;;5114086;28;20020;-54
2023/12/02 10:15:42;;;;;;;19.53;15.53;;;;;;;;;;5114589;28;20027;-57
2023/12/02 10:18:12;;;;;;;17.77;13.97;;;;;;;;;;5114302;28;20028;-55
2023/12/02 10:20:40;;;;;;;16.95;14.13;;;;;;;;;;5113936;28;20473;-56
2023/12/02 10:23:21;;;;;;;20.77;15.00;;;;;;;;;;5114347;28;20024;-54
2023/12/02 10:25:47;;;;;;;18.03;15.33;;;;;;;;;;5113791;28;20477;-54
2023/12/02 10:28:24;;;;;;;14.70;12.77;;;;;;;;;;5114230;28;20072;-57
2023/12/02 10:30:51;;;;;;;16.00;13.37;;;;;;;;;;5114094;28;20442;-51
2023/12/02 10:33:27;;;;;;;15.90;13.30;;;;;;;;;;5114583;28;20023;-55
2023/12/02 10:36:01;;;;;;;17.70;13.73;;;;;;;;;;5113768;28;20089;-56
2023/12/02 10:38:33;;;;;;;18.87;14.20;;;;;;;;;;5114273;28;20085;-54
2023/12/02 10:41:13;;;;;;;16.17;14.47;;;;;;;;;;5113893;28;20027;-54
2023/12/02 10:43:40;;;;;;;16.27;13.00;;;;;;;;;;5114545;28;20047;-52
2023/12/02 10:46:07;;;;;;;15.37;13.73;;;;;;;;;;5114556;28;20101;-54
2023/12/02 10:48:34;;;;;;;14.50;12.53;;;;;;;;;;5114600;28;20059;-56
2023/12/02 10:51:00;;;;;;;15.60;13.93;;;;;;;;;;5113279;28;20020;-53
2023/12/02 10:53:27;;;;;;;17.43;12.20;;;;;;;;;;5113984;28;20027;-55
2023/12/02 10:55:59;;;;;;;20.33;17.13;;;;;;;;;;5113402;28;20458;-52
2023/12/02 10:58:25;;;;;;;17.97;15.60;;;;;;;;;;5113858;28;20369;-55
2023/12/02 11:00:55;;;;;;;18.90;14.63;;;;;;;;;;5113843;28;20027;-54
2023/12/02 11:03:27;;;;;;;16.00;12.98;;;;;;;;;;5114209;28;20024;-55
2023/12/02 11:06:00;;;;;;;21.47;14.30;;;;;;;;;;5114068;28;20544;-54
2023/12/02 11:08:39;;;;;;;18.17;15.63;;;;;;;;;;5116375;28;20546;-56
2023/12/02 11:11:07;;;;;;;18.97;13.40;;;;;;;;;;5117042;28;20024;-56
2023/12/02 11:13:35;;;;;;;20.90;15.17;;;;;;;;;;5117253;28;20027;-55
2023/12/02 11:16:13;;;;;;;14.60;12.53;;;;;;;;;;5117686;28;20147;-56
2023/12/02 11:18:38;;;;;;;17.13;13.00;;;;;;;;;;5117700;28;20031;-54
2023/12/02 11:21:05;;;;;;;19.57;14.93;;;;;;;;;;5117081;28;20419;-56
2023/12/02 11:23:31;;;;;;;21.10;15.40;;;;;;;;;;5117007;28;20373;-56
2023/12/02 11:26:00;;;;;;;20.37;15.50;;;;;;;;;;5117021;28;20028;-56
2023/12/02 11:28:49;;;;;;;16.30;14.37;;;;;;;;;;5117523;28;20102;-54
2023/12/02 11:31:25;;;;;;;17.63;13.53;;;;;;;;;;5116538;28;20076;-55
2023/12/02 11:33:50;;;;;;;18.43;12.43;;;;;;;;;;5117055;28;20407;-55
2023/12/02 11:36:29;;;;;;;13.03;10.33;;;;;;;;;;5117141;28;20065;-56
2023/12/02 11:39:03;;;;;;;14.10;12.53;;;;;;;;;;5117330;28;20023;-57
2023/12/02 11:41:32;;;;;;;13.60;11.47;;;;;;;;;;5117310;28;20028;-55
2023/12/02 11:44:10;;;;;;;14.53;11.23;;;;;;;;;;5117128;28;20025;-56
2023/12/02 11:46:43;;;;;;;12.67;10.90;;;;;;;;;;5116301;28;20059;-55
2023/12/02 11:49:12;;;;;;;12.67;11.03;;;;;;;;;;5117103;28;20024;-56
2023/12/02 11:51:44;;;;;;;14.27;12.10;;;;;;;;;;5116066;28;20469;-56
2023/12/02 11:54:19;;;;;;;14.10;11.87;;;;;;;;;;5116570;28;20035;-57
2023/12/02 11:56:51;;;;;;;16.87;12.63;;;;;;;;;;5116500;28;20075;-55
2023/12/02 11:59:17;;;;;;;12.30;11.03;;;;;;;;;;5116000;28;20362;-54
2023/12/02 12:02:00;;;;;;;15.67;11.33;;;;;;;;;;5116724;28;20461;-57
2023/12/02 12:04:41;;;;;;;12.77;10.67;;;;;;;;;;5117106;28;20042;-53
2023/12/02 12:07:10;;;;;;;16.03;10.90;;;;;;;;;;5116552;28;20024;-55
2023/12/02 12:09:42;;;;;;;15.63;12.00;;;;;;;;;;5116094;28;20393;-54
2023/12/02 12:12:11;;;;;;;12.27;10.20;;;;;;;;;;5116790;28;20458;-57
2023/12/02 12:14:37;;;;;;;14.43;11.70;;;;;;;;;;5115955;28;20024;-55
2023/12/02 12:17:03;;;;;;;15.83;12.30;;;;;;;;;;5116722;28;20043;-56
2023/12/02 12:19:29;;;;;;;13.10;11.40;;;;;;;;;;5115859;28;20453;-56
2023/12/02 12:21:56;;;;;;;13.57;10.73;;;;;;;;;;5115489;28;20161;-52
2023/12/02 12:24:22;;;;;;;14.67;11.00;;;;;;;;;;5115873;28;20062;-52
2023/12/02 12:26:49;;;;;;;18.37;11.23;;;;;;;;;;5116600;28;20028;-54
2023/12/02 12:29:15;;;;;;;15.17;11.23;;;;;;;;;;5115432;28;20027;-57
2023/12/02 12:31:42;;;;;;;12.03;10.80;;;;;;;;;;5115756;28;20026;-54
2023/12/02 12:34:15;;;;;;;11.70;9.97;;;;;;;;;;5115591;28;20046;-53
2023/12/02 12:36:43;;;;;;;12.97;9.60;;;;;;;;;;5115322;28;20039;-54
2023/12/02 12:39:10;;;;;;;11.70;9.30;;;;;;;;;;5116059;28;20110;-55
2023/12/02 12:41:39;;;;;;;9.90;8.50;;;;;;;;;;5115368;28;20084;-55
2023/12/02 12:44:05;;;;;;;13.13;10.77;;;;;;;;;;5115343;28;20161;-56
2023/12/02 12:46:31;;;;;;;11.37;9.67;;;;;;;;;;5115346;28;20461;-53
2023/12/02 12:48:57;;;;;;;10.23;8.93;;;;;;;;;;5115730;28;20063;-54
2023/12/02 12:51:23;;;;;;;10.80;9.07;;;;;;;;;;5115332;28;20373;-56
2023/12/02 12:54:00;;;;;;;10.50;8.40;;;;;;;;;;5115240;28;20125;-55
2023/12/02 12:56:49;;;;;;;11.33;9.70;;;;;;;;;;5114719;28;20058;-55
2023/12/02 12:59:16;;;;;;;10.37;8.37;;;;;;;;;;5102112;28;20040;-56
2023/12/02 13:01:50;;;;;;;9.43;7.87;;;;;;;;;;5115915;28;20019;-55
2023/12/02 13:04:35;;;;;;;12.00;9.03;;;;;;;;;;5115468;28;20069;-51
2023/12/02 13:07:10;;;;;;;10.90;8.73;;;;;;;;;;5115545;28;20034;-55
2023/12/02 13:09:42;;;;;;;12.67;10.33;;;;;;;;;;5115561;28;20110;-56
2023/12/02 13:12:11;;;;;;;11.63;9.63;;;;;;;;;;5115541;28;20028;-53
2023/12/02 13:14:57;;;;;;;11.13;9.63;;;;;;;;;;5114531;28;20062;-57
2023/12/02 13:17:24;;;;;;;11.13;9.40;;;;;;;;;;5114620;28;20032;-56
2023/12/02 13:19:49;;;;;;;11.07;9.67;;;;;;;;;;5115097;28;20096;-56
2023/12/02 13:22:16;;;;;;;13.00;11.07;;;;;;;;;;5115897;28;20080;-54
2023/12/02 13:24:51;;;;;;;11.97;9.50;;;;;;;;;;5114704;28;20020;-53
2023/12/02 13:27:23;;;;;;;12.30;10.37;;;;;;;;;;5115206;28;20031;-52
2023/12/02 13:29:51;;;;;;;9.53;8.60;;;;;;;;;;5114877;28;20019;-50
2023/12/02 13:32:17;;;;;;;12.33;10.63;;;;;;;;;;5114174;28;20015;-52
2023/12/02 13:34:50;;;;;;;12.97;10.97;;;;;;;;;;5114573;28;20092;-54
2023/12/02 13:37:17;;;;;;;9.53;8.53;;;;;;;;;;5115033;28;20035;-51
2023/12/02 13:39:46;;;;;;;11.80;9.80;;;;;;;;;;5115030;28;20052;-54
2023/12/02 13:42:12;;;;;;;12.10;10.60;;;;;;;;;;5114475;28;20020;-50
2023/12/02 13:44:40;;;;;;;15.37;12.47;;;;;;;;;;5114679;28;20077;-53
2023/12/02 13:47:13;;;;;;;9.00;8.10;;;;;;;;;;5114704;28;20441;-52
2023/12/02 13:49:42;;;;;;;10.73;8.47;;;;;;;;;;5114445;28;20032;-53
2023/12/02 13:52:18;;;;;;;11.67;9.87;;;;;;;;;;5114170;28;20036;-51
2023/12/02 13:54:58;;;;;;;9.00;7.53;;;;;;;;;;5113964;28;20023;-53
2023/12/02 13:57:41;;;;;;;10.70;9.63;;;;;;;;;;5114222;28;20032;-54
2023/12/02 14:00:11;;;;;;;10.93;8.67;;;;;;;;;;5114391;28;20484;-50
2023/12/02 14:02:48;;;;;;;10.17;9.07;;;;;;;;;;5114989;28;20024;-50
2023/12/02 14:05:17;;;;;;;9.83;8.70;;;;;;;;;;5114074;28;20020;-56
2023/12/02 14:07:49;;;;;;;11.37;7.73;;;;;;;;;;5114191;28;20478;-57
2023/12/02 14:10:17;;;;;;;9.20;7.67;;;;;;;;;;5114042;28;20069;-51
2023/12/02 14:12:50;;;;;;;8.77;7.87;;;;;;;;;;5114552;28;20031;-56
2023/12/02 14:15:35;;;;;;;9.60;7.90;;;;;;;;;;5114214;28;20457;-55
2023/12/02 14:18:10;;;;;;;12.20;9.53;;;;;;;;;;5114243;28;20055;-52
2023/12/02 14:20:36;;;;;;;10.70;9.63;;;;;;;;;;5114470;28;20061;-57
2023/12/02 14:23:20;;;;;;;10.13;8.47;;;;;;;;;;5113750;28;20115;-53